AAL205 KSAN-KLAX
Flight info
| Callsign | AAL205 |
|---|---|
| Flight time | 0h 24m |
| Altitude | 10000 |
| Route | CWARD2 SLI |
| Aircraft | A20N/M-SDE2E3FGHIRWXY/LB1 |
Departure
| Time | 2026-05-06 22:41 |
|---|---|
| Airport | San Diego International Airport (KSAN) |
Arrival
| Time | 2026-05-06 23:05 |
|---|---|
| Airport | Los Angeles International Airport (KLAX) |
| Time | Latitude | Longitude | Altitude | Speed | Heading |
|---|---|---|---|---|---|
| 2026-05-06 22:14 | 32.73384 | -117.19858 | 26 ft | 0 kts | 176° |
| 2026-05-06 22:31 | 32.73395 | -117.19859 | 26 ft | 3 kts | 176° |
| 2026-05-06 22:31 | 32.73421 | -117.19861 | 26 ft | 3 kts | 176° |
| 2026-05-06 22:31 | 32.73448 | -117.19863 | 26 ft | 3 kts | 176° |
| 2026-05-06 22:31 | 32.73474 | -117.19865 | 26 ft | 3 kts | 176° |
| 2026-05-06 22:32 | 32.73477 | -117.19865 | 26 ft | 0 kts | 176° |
| 2026-05-06 22:34 | 32.73466 | -117.19852 | 26 ft | 0 kts | 121° |
| 2026-05-06 22:34 | 32.73464 | -117.19846 | 26 ft | 3 kts | 112° |
| 2026-05-06 22:34 | 32.73449 | -117.19784 | 26 ft | 10 kts | 102° |
| 2026-05-06 22:35 | 32.73431 | -117.19690 | 26 ft | 13 kts | 104° |
| 2026-05-06 22:35 | 32.73401 | -117.19572 | 26 ft | 16 kts | 106° |
| 2026-05-06 22:35 | 32.73370 | -117.19437 | 26 ft | 17 kts | 105° |
| 2026-05-06 22:35 | 32.73337 | -117.19299 | 26 ft | 17 kts | 108° |
| 2026-05-06 22:36 | 32.73300 | -117.19164 | 26 ft | 17 kts | 107° |
| 2026-05-06 22:36 | 32.73268 | -117.19026 | 26 ft | 17 kts | 104° |
| 2026-05-06 22:36 | 32.73234 | -117.18888 | 26 ft | 17 kts | 106° |
| 2026-05-06 22:36 | 32.73201 | -117.18751 | 26 ft | 17 kts | 105° |
| 2026-05-06 22:37 | 32.73169 | -117.18613 | 26 ft | 17 kts | 106° |
| 2026-05-06 22:37 | 32.73135 | -117.18476 | 26 ft | 17 kts | 107° |
| 2026-05-06 22:37 | 32.73101 | -117.18340 | 26 ft | 17 kts | 106° |
| 2026-05-06 22:37 | 32.73067 | -117.18201 | 26 ft | 17 kts | 106° |
| 2026-05-06 22:38 | 32.73035 | -117.18063 | 26 ft | 17 kts | 105° |
| 2026-05-06 22:38 | 32.73000 | -117.17925 | 26 ft | 17 kts | 106° |
| 2026-05-06 22:38 | 32.72969 | -117.17799 | 26 ft | 8 kts | 107° |
| 2026-05-06 22:38 | 32.72961 | -117.17735 | 26 ft | 5 kts | 83° |
| 2026-05-06 22:39 | 32.72962 | -117.17729 | 26 ft | 0 kts | 79° |
| 2026-05-06 22:39 | 32.72962 | -117.17728 | 26 ft | 0 kts | 79° |
| 2026-05-06 22:39 | 32.72971 | -117.17694 | 26 ft | 10 kts | 60° |
| 2026-05-06 22:39 | 32.73020 | -117.17657 | 26 ft | 8 kts | 351° |
| 2026-05-06 22:40 | 32.73038 | -117.17673 | 26 ft | 0 kts | 300° |
| 2026-05-06 22:40 | 32.73040 | -117.17678 | 26 ft | 4 kts | 300° |
| 2026-05-06 22:41 | 32.73375 | -117.19041 | 44 ft | 157 kts | 287° |
| 2026-05-06 22:41 | 32.73699 | -117.20326 | 771 ft | 163 kts | 290° |
| 2026-05-06 22:41 | 32.74345 | -117.21339 | 1754 ft | 163 kts | 326° |
| 2026-05-06 22:42 | 32.75383 | -117.21922 | 2514 ft | 175 kts | 327° |
| 2026-05-06 22:42 | 32.76238 | -117.22962 | 3174 ft | 185 kts | 290° |
| 2026-05-06 22:42 | 32.76363 | -117.24488 | 3809 ft | 195 kts | 260° |
| 2026-05-06 22:42 | 32.76227 | -117.26169 | 4261 ft | 219 kts | 275° |
| 2026-05-06 22:43 | 32.76821 | -117.27914 | 4719 ft | 248 kts | 304° |
| 2026-05-06 22:43 | 32.78018 | -117.29497 | 5370 ft | 265 kts | 310° |
| 2026-05-06 22:43 | 32.79253 | -117.31147 | 6184 ft | 273 kts | 307° |
| 2026-05-06 22:43 | 32.80475 | -117.32886 | 7060 ft | 278 kts | 306° |
| 2026-05-06 22:44 | 32.81700 | -117.34675 | 7880 ft | 285 kts | 305° |
| 2026-05-06 22:44 | 32.82929 | -117.36526 | 8680 ft | 292 kts | 305° |
| 2026-05-06 22:44 | 32.84199 | -117.38467 | 9412 ft | 299 kts | 305° |
| 2026-05-06 22:44 | 32.85468 | -117.40421 | 9848 ft | 304 kts | 305° |
| 2026-05-06 22:45 | 32.86755 | -117.42408 | 9991 ft | 306 kts | 305° |
| 2026-05-06 22:45 | 32.88052 | -117.44413 | 9992 ft | 305 kts | 305° |
| 2026-05-06 22:45 | 32.89348 | -117.46420 | 9992 ft | 305 kts | 305° |
| 2026-05-06 22:45 | 32.90634 | -117.48418 | 9991 ft | 305 kts | 305° |
| 2026-05-06 22:46 | 32.91917 | -117.50413 | 9989 ft | 305 kts | 306° |
| 2026-05-06 22:46 | 32.93204 | -117.52415 | 9986 ft | 306 kts | 305° |
| 2026-05-06 22:46 | 32.94492 | -117.54418 | 9984 ft | 306 kts | 305° |
| 2026-05-06 22:46 | 32.95785 | -117.56434 | 9980 ft | 306 kts | 305° |
| 2026-05-06 22:47 | 32.97080 | -117.58451 | 9977 ft | 306 kts | 305° |
| 2026-05-06 22:47 | 32.98362 | -117.60452 | 9974 ft | 307 kts | 305° |
| 2026-05-06 22:47 | 32.99668 | -117.62492 | 9972 ft | 308 kts | 306° |
| 2026-05-06 22:47 | 33.00956 | -117.64503 | 9970 ft | 308 kts | 306° |
| 2026-05-06 22:48 | 33.02267 | -117.66551 | 9969 ft | 308 kts | 305° |
| 2026-05-06 22:48 | 33.03553 | -117.68561 | 9968 ft | 309 kts | 305° |
| 2026-05-06 22:48 | 33.04868 | -117.70611 | 9967 ft | 310 kts | 307° |
| 2026-05-06 22:48 | 33.06262 | -117.72571 | 9968 ft | 310 kts | 311° |
| 2026-05-06 22:49 | 33.07770 | -117.74383 | 9968 ft | 311 kts | 316° |
| 2026-05-06 22:49 | 33.09391 | -117.76077 | 9969 ft | 311 kts | 319° |
| 2026-05-06 22:49 | 33.11057 | -117.77753 | 9967 ft | 312 kts | 319° |
| 2026-05-06 22:49 | 33.12709 | -117.79411 | 9968 ft | 312 kts | 319° |
| 2026-05-06 22:50 | 33.14350 | -117.81067 | 9968 ft | 312 kts | 319° |
| 2026-05-06 22:50 | 33.16005 | -117.82745 | 9968 ft | 312 kts | 319° |
| 2026-05-06 22:50 | 33.17663 | -117.84410 | 9967 ft | 312 kts | 323° |
| 2026-05-06 22:50 | 33.19495 | -117.85809 | 9967 ft | 311 kts | 334° |
| 2026-05-06 22:51 | 33.21487 | -117.86753 | 9944 ft | 309 kts | 346° |
| 2026-05-06 22:51 | 33.23554 | -117.87335 | 9821 ft | 307 kts | 351° |
| 2026-05-06 22:51 | 33.25646 | -117.87821 | 9696 ft | 306 kts | 351° |
| 2026-05-06 22:51 | 33.27743 | -117.88301 | 9571 ft | 305 kts | 351° |
| 2026-05-06 22:52 | 33.29805 | -117.88789 | 9447 ft | 305 kts | 350° |
| 2026-05-06 22:52 | 33.31895 | -117.89298 | 9321 ft | 304 kts | 350° |
| 2026-05-06 22:52 | 33.33952 | -117.89806 | 9197 ft | 304 kts | 349° |
| 2026-05-06 22:52 | 33.36026 | -117.90323 | 9071 ft | 303 kts | 349° |
| 2026-05-06 22:53 | 33.38082 | -117.90849 | 8946 ft | 303 kts | 347° |
| 2026-05-06 22:53 | 33.40105 | -117.91514 | 8822 ft | 303 kts | 344° |
| 2026-05-06 22:53 | 33.42094 | -117.92236 | 8698 ft | 302 kts | 343° |
| 2026-05-06 22:53 | 33.44114 | -117.92981 | 8572 ft | 301 kts | 343° |
| 2026-05-06 22:54 | 33.46113 | -117.93716 | 8447 ft | 301 kts | 343° |
| 2026-05-06 22:54 | 33.48105 | -117.94445 | 8323 ft | 300 kts | 343° |
| 2026-05-06 22:54 | 33.50102 | -117.95174 | 8198 ft | 300 kts | 343° |
| 2026-05-06 22:54 | 33.52068 | -117.95890 | 8074 ft | 300 kts | 343° |
| 2026-05-06 22:55 | 33.54083 | -117.96624 | 7948 ft | 299 kts | 343° |
| 2026-05-06 22:55 | 33.56046 | -117.97338 | 7824 ft | 299 kts | 343° |
| 2026-05-06 22:55 | 33.58047 | -117.98068 | 7698 ft | 299 kts | 343° |
| 2026-05-06 22:55 | 33.60017 | -117.98785 | 7574 ft | 298 kts | 343° |
| 2026-05-06 22:56 | 33.62005 | -117.99510 | 7449 ft | 298 kts | 343° |
| 2026-05-06 22:56 | 33.63981 | -118.00231 | 7324 ft | 297 kts | 343° |
| 2026-05-06 22:56 | 33.65948 | -118.00948 | 7200 ft | 297 kts | 343° |
| 2026-05-06 22:56 | 33.67924 | -118.01670 | 7075 ft | 296 kts | 343° |
| 2026-05-06 22:57 | 33.69888 | -118.02387 | 6976 ft | 296 kts | 343° |
| 2026-05-06 22:57 | 33.71865 | -118.03110 | 6961 ft | 296 kts | 343° |
| 2026-05-06 22:57 | 33.73822 | -118.03826 | 6838 ft | 296 kts | 343° |
| 2026-05-06 22:57 | 33.75778 | -118.04542 | 6708 ft | 293 kts | 343° |
| 2026-05-06 22:58 | 33.77708 | -118.05248 | 6500 ft | 285 kts | 343° |
| 2026-05-06 22:58 | 33.79581 | -118.05939 | 6301 ft | 278 kts | 343° |
| 2026-05-06 22:58 | 33.81401 | -118.06617 | 6097 ft | 271 kts | 342° |
| 2026-05-06 22:58 | 33.83151 | -118.07270 | 5898 ft | 264 kts | 343° |
| 2026-05-06 22:59 | 33.84900 | -118.07924 | 5693 ft | 258 kts | 343° |
| 2026-05-06 22:59 | 33.86580 | -118.08551 | 5491 ft | 252 kts | 342° |
| 2026-05-06 22:59 | 33.88247 | -118.09161 | 5288 ft | 247 kts | 342° |
| 2026-05-06 22:59 | 33.89861 | -118.09757 | 5114 ft | 240 kts | 343° |
| 2026-05-06 23:00 | 33.91427 | -118.10342 | 4963 ft | 232 kts | 343° |
| 2026-05-06 23:00 | 33.92933 | -118.10901 | 4810 ft | 225 kts | 343° |
| 2026-05-06 23:00 | 33.94353 | -118.11584 | 4619 ft | 219 kts | 323° |
| 2026-05-06 23:00 | 33.95352 | -118.12946 | 4362 ft | 214 kts | 298° |
| 2026-05-06 23:01 | 33.95874 | -118.14559 | 4107 ft | 208 kts | 275° |
| 2026-05-06 23:01 | 33.95945 | -118.16289 | 3855 ft | 203 kts | 264° |
| 2026-05-06 23:01 | 33.95835 | -118.17954 | 3614 ft | 200 kts | 260° |
| 2026-05-06 23:01 | 33.95674 | -118.19619 | 3363 ft | 198 kts | 259° |
| 2026-05-06 23:02 | 33.95499 | -118.21263 | 3078 ft | 199 kts | 259° |
| 2026-05-06 23:02 | 33.95324 | -118.22903 | 2835 ft | 196 kts | 259° |
| 2026-05-06 23:02 | 33.95155 | -118.24511 | 2645 ft | 191 kts | 260° |
| 2026-05-06 23:02 | 33.94990 | -118.26106 | 2602 ft | 191 kts | 260° |
| 2026-05-06 23:03 | 33.94827 | -118.27678 | 2599 ft | 190 kts | 260° |
| 2026-05-06 23:03 | 33.94665 | -118.29248 | 2490 ft | 186 kts | 260° |
| 2026-05-06 23:03 | 33.94505 | -118.30797 | 2202 ft | 185 kts | 261° |
| 2026-05-06 23:03 | 33.94356 | -118.32250 | 2055 ft | 167 kts | 261° |
| 2026-05-06 23:04 | 33.94219 | -118.33584 | 1848 ft | 156 kts | 261° |
| 2026-05-06 23:04 | 33.94091 | -118.34824 | 1619 ft | 145 kts | 261° |
| 2026-05-06 23:04 | 33.93970 | -118.36000 | 1321 ft | 140 kts | 261° |
| 2026-05-06 23:04 | 33.93842 | -118.37207 | 741 ft | 152 kts | 262° |
| 2026-05-06 23:05 | 33.93711 | -118.38416 | 366 ft | 147 kts | 262° |
| 2026-05-06 23:05 | 33.93603 | -118.39590 | 175 ft | 126 kts | 260° |
| 2026-05-06 23:05 | 33.93506 | -118.40537 | 124 ft | 92 kts | 264° |
| 2026-05-06 23:05 | 33.93459 | -118.40964 | 127 ft | 39 kts | 259° |
| 2026-05-06 23:06 | 33.93430 | -118.41268 | 127 ft | 30 kts | 268° |
| 2026-05-06 23:06 | 33.93434 | -118.41426 | 127 ft | 16 kts | 267° |
| 2026-05-06 23:06 | 33.93404 | -118.41605 | 123 ft | 27 kts | 258° |
| 2026-05-06 23:06 | 33.93391 | -118.41691 | 123 ft | 6 kts | 260° |
| 2026-05-06 23:07 | 33.93380 | -118.41810 | 121 ft | 19 kts | 275° |
| 2026-05-06 23:07 | 33.93465 | -118.41894 | 119 ft | 14 kts | 358° |
| 2026-05-06 23:07 | 33.93565 | -118.41911 | 119 ft | 14 kts | 349° |
| 2026-05-06 23:07 | 33.93626 | -118.41926 | 118 ft | 9 kts | 349° |
| 2026-05-06 23:08 | 33.93655 | -118.41932 | 118 ft | 0 kts | 352° |
| 2026-05-06 23:08 | 33.93657 | -118.41933 | 118 ft | 0 kts | 352° |
| 2026-05-06 23:10 | 33.93660 | -118.41931 | 118 ft | 1 kts | 16° |
| 2026-05-06 23:11 | 33.93675 | -118.41913 | 119 ft | 4 kts | 59° |
| 2026-05-06 23:11 | 33.93684 | -118.41859 | 120 ft | 8 kts | 82° |
| 2026-05-06 23:11 | 33.93695 | -118.41788 | 121 ft | 8 kts | 82° |
| 2026-05-06 23:11 | 33.93702 | -118.41720 | 122 ft | 7 kts | 83° |
| 2026-05-06 23:12 | 33.93708 | -118.41655 | 124 ft | 7 kts | 83° |
| 2026-05-06 23:12 | 33.93715 | -118.41595 | 125 ft | 7 kts | 83° |
| 2026-05-06 23:12 | 33.93722 | -118.41521 | 126 ft | 10 kts | 83° |
| 2026-05-06 23:12 | 33.93733 | -118.41412 | 125 ft | 15 kts | 83° |
| 2026-05-06 23:13 | 33.93747 | -118.41277 | 127 ft | 17 kts | 82° |
| 2026-05-06 23:13 | 33.93762 | -118.41124 | 127 ft | 18 kts | 84° |
| 2026-05-06 23:13 | 33.93780 | -118.40968 | 127 ft | 18 kts | 83° |
| 2026-05-06 23:13 | 33.93795 | -118.40813 | 127 ft | 18 kts | 82° |
| 2026-05-06 23:14 | 33.93810 | -118.40661 | 127 ft | 17 kts | 84° |
| 2026-05-06 23:14 | 33.93823 | -118.40534 | 124 ft | 9 kts | 83° |
| 2026-05-06 23:14 | 33.93831 | -118.40449 | 122 ft | 11 kts | 83° |
| 2026-05-06 23:14 | 33.93843 | -118.40344 | 120 ft | 13 kts | 82° |
| 2026-05-06 23:15 | 33.93852 | -118.40262 | 120 ft | 8 kts | 82° |
| 2026-05-06 23:15 | 33.93861 | -118.40183 | 120 ft | 11 kts | 83° |
| 2026-05-06 23:15 | 33.93874 | -118.40080 | 118 ft | 7 kts | 67° |
| 2026-05-06 23:15 | 33.93914 | -118.40060 | 118 ft | 9 kts | 4° |
| 2026-05-06 23:16 | 33.93977 | -118.40087 | 119 ft | 10 kts | 313° |
| 2026-05-06 23:16 | 33.94009 | -118.40135 | 120 ft | 4 kts | 307° |
| 2026-05-06 23:16 | 33.94014 | -118.40142 | 120 ft | 0 kts | 307° |
| 2026-05-06 23:16 | 33.94014 | -118.40143 | 120 ft | 0 kts | 308° |